Time;durP1;ratioP1;P1;durP2;ratioP2;P2;SDS_P1;SDS_P2;PMS_P1;PMS_P2;Temp;Humidity;BMP_temperature;BMP_pressure;BME280_temperature;BME280_humidity;BME280_pressure;Samples;Min_cycle;Max_cycle;Signal;HPM_P1;HPM_P2
2023/03/13 07:35:06;;;;;;;0.30;0.30;;;14.50;99.90;16.80;99507.00;;;;6332661;22;20210;-72
2023/03/13 07:37:32;;;;;;;4.50;1.27;;;14.40;99.90;16.20;99461.00;;;;6220752;22;1332493;-73
2023/03/13 07:40:01;;;;;;;0.57;0.57;;;14.30;99.90;16.10;99508.00;;;;6276385;22;20191;-73
2023/03/13 07:42:27;;;;;;;1.03;0.97;;;14.20;99.90;16.70;99520.00;;;;6302502;22;20541;-73
2023/03/13 07:45:00;;;;;;;0.50;0.50;;;14.40;99.90;16.60;99512.00;;;;6302820;22;20147;-73
2023/03/13 07:47:29;;;;;;;1.07;1.07;;;14.20;99.90;16.80;99518.00;;;;6251018;22;20180;-73
2023/03/13 07:50:00;;;;;;;5.27;2.97;;;14.50;99.90;15.10;99462.00;;;;6250857;22;20160;-73
2023/03/13 07:52:54;;;;;;;2.93;1.30;;;14.10;99.90;15.20;99488.00;;;;6302323;22;20245;-73
2023/03/13 07:55:23;;;;;;;0.60;0.60;;;14.00;99.90;16.60;99489.00;;;;6251027;22;20160;-73
2023/03/13 07:57:52;;;;;;;2.00;1.90;;;14.30;99.90;16.20;99526.00;;;;6301831;22;20152;-74
2023/03/13 08:00:40;;;;;;;5.83;2.17;;;14.30;99.90;15.70;99513.00;;;;6278023;22;20523;-73
2023/03/13 08:03:19;;;;;;;0.50;0.50;;;14.30;99.90;16.50;99520.00;;;;6249278;22;20216;-73
2023/03/13 08:06:10;;;;;;;2.93;1.37;;;14.40;99.90;15.60;99501.00;;;;6276274;22;20159;-73
2023/03/13 08:08:42;;;;;;;4.20;1.60;;;14.20;99.90;15.50;99493.00;;;;6275778;22;20162;-74
2023/03/13 08:11:23;;;;;;;2.80;1.33;;;14.30;99.90;15.30;99499.00;;;;6278021;22;20147;-74
2023/03/13 08:13:49;;;;;;;8.00;0.70;;;14.20;99.90;16.20;99498.00;;;;6276519;22;20148;-73
2023/03/13 08:16:25;;;;;;;1.73;0.80;;;14.40;99.90;17.50;99499.00;;;;6302348;22;20143;-74
2023/03/13 08:19:04;;;;;;;0.63;0.23;;;15.00;99.90;16.70;99496.00;;;;6276403;22;20180;-73
2023/03/13 08:21:36;;;;;;;0.63;0.63;;;15.00;99.90;17.60;99506.00;;;;6250581;22;20592;-73
2023/03/13 08:24:16;;;;;;;1.03;0.83;;;15.30;99.90;17.20;99497.00;;;;6250862;22;20162;-73
2023/03/13 08:26:45;;;;;;;0.43;0.43;;;15.10;99.90;17.50;99509.00;;;;6276280;22;20142;-72
2023/03/13 08:29:15;;;;;;;0.97;0.60;;;15.30;99.90;17.20;99515.00;;;;6302339;22;20142;-73
2023/03/13 08:31:47;;;;;;;0.20;0.20;;;15.10;99.90;17.30;99522.00;;;;6277832;22;20146;-73
2023/03/13 08:34:22;;;;;;;0.20;0.20;;;15.20;99.90;17.70;99503.00;;;;6276049;22;20160;-73
2023/03/13 08:36:48;;;;;;;0.40;0.40;;;15.20;99.90;18.00;99522.00;;;;6276787;22;20226;-74
2023/03/13 08:39:19;;;;;;;0.40;0.40;;;15.50;99.90;17.80;99491.00;;;;6302221;22;20526;-73
2023/03/13 08:41:50;;;;;;;1.07;0.97;;;15.40;99.90;17.60;99467.00;;;;6275640;22;20208;-73
2023/03/13 08:44:24;;;;;;;0.20;0.20;;;15.40;99.90;18.30;99496.00;;;;6277900;22;20147;-73
2023/03/13 08:46:58;;;;;;;0.50;0.50;;;15.60;99.90;17.70;99489.00;;;;6276219;22;20141;-74
2023/03/13 08:49:24;;;;;;;0.20;0.20;;;15.60;99.90;19.40;99505.00;;;;6276368;22;20219;-74
2023/03/13 08:51:59;;;;;;;0.63;0.63;;;16.20;99.90;19.40;99512.00;;;;6301344;22;20586;-73
2023/03/13 08:54:28;;;;;;;3.63;0.80;;;16.60;99.90;18.60;99478.00;;;;6251236;22;20156;-73
2023/03/13 08:56:58;;;;;;;0.40;0.40;;;16.50;99.90;18.10;99482.00;;;;6275797;22;20156;-73
2023/03/13 08:59:30;;;;;;;0.22;0.22;;;16.20;99.90;18.40;99487.00;;;;6250932;22;20180;-73
2023/03/13 09:02:02;;;;;;;0.30;0.30;;;16.20;99.90;18.70;99495.00;;;;6250961;22;20258;-73
2023/03/13 09:04:31;;;;;;;6.13;0.73;;;16.20;99.90;18.40;99474.00;;;;6301614;22;20151;-74
2023/03/13 09:07:03;;;;;;;0.60;0.60;;;16.30;99.90;18.20;99486.00;;;;6301024;22;20168;-74
2023/03/13 09:09:34;;;;;;;0.20;0.20;;;16.20;99.90;18.40;99498.00;;;;6276272;22;20634;-73
2023/03/13 09:12:02;;;;;;;0.40;0.40;;;16.20;99.90;18.60;99499.00;;;;6250316;22;20162;-74
2023/03/13 09:14:31;;;;;;;1.57;0.50;;;16.20;99.90;18.40;99484.00;;;;6301537;22;20144;-74
2023/03/13 09:17:03;;;;;;;0.30;0.30;;;16.20;99.90;19.00;99454.00;;;;6275224;22;20189;-74
2023/03/13 09:19:29;;;;;;;0.37;0.37;;;16.40;99.90;19.80;99506.00;;;;6274914;22;20234;-74
2023/03/13 09:22:06;;;;;;;1.03;1.03;;;16.70;99.90;18.00;99492.00;;;;6275700;22;20180;-73
2023/03/13 09:24:32;;;;;;;0.20;0.20;;;16.40;99.90;17.80;99434.00;;;;6277081;22;20221;-74
2023/03/13 09:27:06;;;;;;;0.30;0.30;;;15.90;99.90;18.60;99469.00;;;;6301577;22;20178;-74
2023/03/13 09:29:40;;;;;;;1.40;0.83;;;16.30;99.90;17.60;99464.00;;;;6275576;22;20149;-74
2023/03/13 09:32:10;;;;;;;0.77;0.37;;;16.10;99.90;18.70;99455.00;;;;6277318;22;20232;-74
2023/03/13 09:34:37;;;;;;;0.20;0.20;;;16.20;99.90;19.40;99486.00;;;;6275372;22;20477;-74
2023/03/13 09:37:11;;;;;;;0.10;0.10;;;16.50;99.90;19.50;99498.00;;;;6275446;22;20167;-74
2023/03/13 09:39:46;;;;;;;0.40;0.40;;;16.60;99.90;18.90;99470.00;;;;6301314;22;20211;-74
2023/03/13 09:42:18;;;;;;;0.20;0.20;;;16.50;99.90;19.20;99483.00;;;;6275467;22;20167;-74
2023/03/13 09:45:13;;;;;;;0.37;0.37;;;16.60;99.90;19.00;99478.00;;;;6301512;22;20555;-74
2023/03/13 09:47:46;;;;;;;0.37;0.37;;;16.50;99.90;18.10;99458.00;;;;6250244;22;20151;-74
2023/03/13 09:50:28;;;;;;;0.50;0.50;;;16.40;99.90;18.20;99475.00;;;;6249688;22;20183;-74
2023/03/13 09:53:12;;;;;;;0.30;0.30;;;16.30;99.90;18.40;99461.00;;;;6275440;22;20149;-74
2023/03/13 09:55:40;;;;;;;2.47;0.63;;;16.10;99.90;18.40;99452.00;;;;6275684;22;20139;-74
2023/03/13 09:58:26;;;;;;;0.30;0.30;;;16.40;99.90;18.20;99412.00;;;;6275535;22;20135;-74
2023/03/13 10:01:03;;;;;;;0.60;0.43;;;16.00;99.90;18.80;99461.00;;;;6250061;22;20161;-74
2023/03/13 10:03:43;;;;;;;0.20;0.20;;;16.10;99.90;18.60;99428.00;;;;6274914;22;20213;-74
2023/03/13 10:06:19;;;;;;;0.30;0.30;;;16.20;99.90;18.70;99444.00;;;;6275805;22;20514;-74
2023/03/13 10:08:51;;;;;;;0.17;0.17;;;16.10;99.90;19.50;99456.00;;;;6276841;22;20158;-74
2023/03/13 10:11:43;;;;;;;0.60;0.60;;;16.30;99.90;18.40;99429.00;;;;6301371;22;20246;-74
2023/03/13 10:14:41;;;;;;;0.40;0.40;;;16.40;99.90;19.20;99451.00;;;;6276517;22;20489;-73
2023/03/13 10:17:41;;;;;;;0.13;0.13;;;16.30;99.90;18.30;99415.00;;;;6277014;22;20145;-74
2023/03/13 10:20:33;;;;;;;2.13;0.93;;;16.20;99.90;17.40;99407.00;;;;6275279;22;20144;-74
2023/03/13 10:33:31;;;;;;;5.10;0.73;;;16.10;99.90;19.10;99424.00;;;;5070220;28;20549;-74
2023/03/13 10:36:12;;;;;;;0.30;0.30;;;16.70;99.90;18.90;99441.00;;;;5049082;28;20187;-74
2023/03/13 10:39:14;;;;;;;1.27;1.00;;;16.80;99.90;18.20;99446.00;;;;5049799;28;20647;-74
2023/03/13 10:41:48;;;;;;;0.30;0.30;;;16.80;99.90;18.70;99413.00;;;;5048900;28;20192;-74
2023/03/13 10:44:21;;;;;;;3.47;1.00;;;16.60;99.90;18.00;99416.00;;;;5047117;28;20627;-74
2023/03/13 10:46:49;;;;;;;0.17;0.17;;;16.80;99.90;19.30;99451.00;;;;5048655;28;20269;-74
2023/03/13 10:49:22;;;;;;;0.37;0.30;;;16.90;99.90;19.50;99455.00;;;;5049948;28;20301;-74
2023/03/13 10:52:07;;;;;;;0.20;0.20;;;17.20;99.90;18.70;99441.00;;;;5028975;28;20558;-74
2023/03/13 10:54:44;;;;;;;0.10;0.10;;;16.90;99.90;19.90;99437.00;;;;5044326;28;20192;-74
2023/03/13 10:57:32;;;;;;;1.00;0.60;;;17.00;99.90;18.70;99462.00;;;;5029346;28;20612;-75
2023/03/13 11:00:03;;;;;;;3.77;1.53;;;16.90;99.90;18.90;99431.00;;;;5030778;28;20237;-74
2023/03/13 11:02:38;;;;;;;0.20;0.20;;;16.90;99.90;18.50;99440.00;;;;5032348;28;20192;-75
2023/03/13 11:05:23;;;;;;;3.50;1.27;;;16.60;99.90;18.30;99419.00;;;;5047993;28;20266;-74
2023/03/13 11:07:50;;;;;;;0.20;0.20;;;16.50;99.90;18.20;99410.00;;;;5055720;28;20282;-75
2023/03/13 11:10:31;;;;;;;0.10;0.10;;;16.40;99.90;19.00;99412.00;;;;5078274;28;20187;-75
2023/03/13 11:13:09;;;;;;;0.10;0.10;;;16.40;99.90;19.30;99412.00;;;;5048611;28;20193;-74
2023/03/13 11:15:48;;;;;;;0.33;0.23;;;16.70;99.90;18.80;99381.00;;;;5048101;28;20246;-74
2023/03/13 11:18:50;;;;;;;0.30;0.30;;;16.70;99.90;18.00;99402.00;;;;5048908;28;20176;-75
2023/03/13 11:22:11;;;;;;;0.20;0.20;;;16.50;99.90;19.00;99392.00;;;;5045611;28;20234;-74
2023/03/13 11:24:58;;;;;;;0.10;0.10;;;16.50;99.90;19.00;99388.00;;;;5051232;28;20179;-74
2023/03/13 11:27:50;;;;;;;0.10;0.10;;;16.50;99.90;19.30;99390.00;;;;5043978;28;20192;-74
2023/03/13 11:31:09;;;;;;;0.10;0.10;;;16.90;99.90;20.20;99402.00;;;;5049132;28;20287;-74
2023/03/13 11:34:14;;;;;;;1.15;1.05;;;17.60;99.90;19.90;99409.00;;;;5040846;28;20202;-74
2023/03/13 11:37:03;;;;;;;0.38;0.30;;;17.70;99.90;20.20;99420.00;;;;5062096;28;20186;-75
2023/03/13 11:40:05;;;;;;;0.75;0.52;;;18.00;99.90;20.20;99430.00;;;;5049104;28;20655;-74
2023/03/13 11:42:55;;;;;;;0.20;0.20;;;18.00;99.90;21.10;99404.00;;;;5047939;28;20212;-74
2023/03/13 11:45:49;;;;;;;1.00;0.43;;;18.00;99.90;21.50;99420.00;;;;5024619;28;20585;-75
2023/03/13 11:48:46;;;;;;;2.10;0.45;;;18.70;99.90;20.60;99457.00;;;;5022388;28;20643;-74
2023/03/13 11:51:48;;;;;;;0.40;0.13;;;18.50;99.90;22.20;99412.00;;;;5017848;28;20183;-75
2023/03/13 11:54:31;;;;;;;1.13;0.50;;;18.90;99.90;22.60;99432.00;;;;5014908;28;20187;-74
2023/03/13 11:57:31;;;;;;;0.10;0.10;;;19.30;99.90;20.60;99453.00;;;;5028524;28;20183;-74
2023/03/13 12:00:24;;;;;;;2.40;1.17;;;18.70;99.90;19.60;99487.00;;;;5025374;28;20171;-74
2023/03/13 12:03:21;;;;;;;0.98;0.80;;;17.90;99.90;20.30;99435.00;;;;5032603;28;20191;-74
2023/03/13 12:05:59;;;;;;;0.80;0.80;;;18.20;99.90;21.20;99446.00;;;;5034508;28;20195;-73
2023/03/13 12:08:35;;;;;;;0.40;0.40;;;18.30;99.90;20.30;99436.00;;;;5012545;28;20188;-74
2023/03/13 12:11:21;;;;;;;1.55;0.22;;;18.40;99.90;20.10;99444.00;;;;5034591;28;20174;-74
2023/03/13 12:14:17;;;;;;;0.50;0.40;;;17.70;99.90;19.60;99437.00;;;;5017428;28;20190;-74
2023/03/13 12:16:56;;;;;;;0.20;0.20;;;17.80;99.90;19.60;99434.00;;;;5063824;28;20194;-74
2023/03/13 12:19:58;;;;;;;1.23;0.73;;;17.50;99.90;19.00;99441.00;;;;5034379;28;20201;-74
2023/03/13 12:22:35;;;;;;;2.50;0.93;;;17.50;99.90;19.70;99422.00;;;;5024699;28;20583;-74
2023/03/13 12:25:36;;;;;;;2.85;0.88;;;17.80;99.90;20.40;99409.00;;;;5033551;28;20649;-73
2023/03/13 12:28:31;;;;;;;0.38;0.38;;;18.40;99.90;21.80;99404.00;;;;5033304;28;20541;-74
2023/03/13 12:31:13;;;;;;;0.30;0.30;;;18.70;99.90;22.60;99378.00;;;;5050136;28;20174;-74
2023/03/13 12:34:18;;;;;;;1.52;0.50;;;19.50;99.90;22.70;99399.00;;;;5033592;28;20195;-75
2023/03/13 12:37:07;;;;;;;3.67;1.02;;;19.70;99.90;19.60;99426.00;;;;5026194;28;20715;-74
2023/03/13 12:39:51;;;;;;;0.55;0.40;;;18.70;99.90;20.90;99432.00;;;;5033830;28;20267;-74
2023/03/13 12:42:45;;;;;;;0.30;0.30;;;18.60;99.90;20.10;99440.00;;;;5029631;28;20285;-75
2023/03/13 12:45:23;;;;;;;0.40;0.40;;;18.50;99.90;21.40;99412.00;;;;5016989;28;20210;-74
2023/03/13 12:48:11;;;;;;;1.80;0.43;;;18.60;99.90;21.90;99397.00;;;;5033768;28;20187;-75
2023/03/13 12:51:11;;;;;;;1.48;0.50;;;18.90;99.90;21.00;99396.00;;;;5033748;28;20632;-74
2023/03/13 12:54:04;;;;;;;0.17;0.17;;;18.40;99.90;22.00;99391.00;;;;5034386;28;20240;-74
2023/03/13 12:56:51;;;;;;;0.10;0.10;;;18.70;99.90;23.10;99380.00;;;;5032560;28;20195;-74
2023/03/13 12:59:36;;;;;;;4.68;1.10;;;19.50;99.90;23.10;99357.00;;;;5051789;28;20178;-74
2023/03/13 13:02:21;;;;;;;3.83;0.95;;;19.90;99.90;22.00;99375.00;;;;5009748;28;20275;-74
2023/03/13 13:04:55;;;;;;;0.20;0.20;;;19.70;99.90;22.00;99354.00;;;;5050367;28;20187;-75
2023/03/13 13:07:37;;;;;;;0.73;0.73;;;19.30;99.90;21.10;99381.00;;;;5016441;28;20226;-75
2023/03/13 13:10:20;;;;;;;0.20;0.20;;;18.80;99.90;21.30;99368.00;;;;5022649;28;20181;-73
2023/03/13 13:13:16;;;;;;;1.65;0.88;;;18.60;99.90;21.40;99363.00;;;;5031349;28;20464;-74
2023/03/13 13:16:00;;;;;;;1.90;0.98;;;18.60;99.90;20.30;99390.00;;;;5061884;28;20198;-74
2023/03/13 13:18:37;;;;;;;3.55;1.42;;;18.20;99.90;19.90;99403.00;;;;5033993;28;20186;-74
2023/03/13 13:21:05;;;;;;;0.10;0.10;;;18.10;99.90;20.50;99390.00;;;;5065040;28;20712;-74
2023/03/13 13:23:47;;;;;;;5.35;3.60;;;18.10;99.90;21.70;99336.00;;;;5032777;28;20194;-75
2023/03/13 13:26:35;;;;;;;0.60;0.17;;;18.60;99.90;22.10;99327.00;;;;5024075;28;20194;-75
2023/03/13 13:29:26;;;;;;;0.40;0.40;;;18.90;99.90;21.20;99369.00;;;;5032273;28;20187;-75
2023/03/13 13:32:00;;;;;;;2.28;0.90;;;18.80;99.90;19.80;99388.00;;;;5032371;28;20219;-74
2023/03/13 13:35:19;;;;;;;2.05;0.95;;;18.30;99.90;20.20;99376.00;;;;5032419;28;20198;-74
2023/03/13 13:37:46;;;;;;;0.65;0.30;;;18.10;99.90;20.60;99362.00;;;;5028287;28;20202;-75
2023/03/13 13:40:18;;;;;;;1.58;0.70;;;18.20;99.90;20.40;99363.00;;;;5032588;28;20205;-74
2023/03/13 13:42:55;;;;;;;2.38;0.60;;;18.20;99.90;20.20;99359.00;;;;5032334;28;20209;-75
2023/03/13 13:45:29;;;;;;;0.38;0.38;;;18.00;99.90;21.30;99345.00;;;;5020434;28;20338;-74
2023/03/13 13:48:36;;;;;;;0.20;0.20;;;18.30;99.90;22.30;99294.00;;;;5032613;28;20592;-74
2023/03/13 13:51:13;;;;;;;1.25;0.52;;;18.80;99.90;21.60;99322.00;;;;5016000;28;20175;-75
2023/03/13 13:53:51;;;;;;;0.38;0.32;;;18.90;99.90;20.70;99357.00;;;;5032436;28;20552;-75
2023/03/13 13:56:35;;;;;;;0.17;0.17;;;18.60;99.90;21.30;99330.00;;;;5031995;28;20236;-74
2023/03/13 13:59:19;;;;;;;0.90;0.70;;;18.30;99.90;21.30;99328.00;;;;5014658;28;20433;-74
2023/03/13 14:02:18;;;;;;;0.77;0.70;;;18.30;99.90;21.40;99315.00;;;;5033635;28;20191;-75
2023/03/13 14:05:05;;;;;;;0.98;0.45;;;18.50;99.90;20.60;99341.00;;;;5020955;28;20191;-75
2023/03/13 14:08:00;;;;;;;5.40;1.23;;;18.50;99.90;19.60;99346.00;;;;5047908;28;20217;-74
2023/03/13 14:11:18;;;;;;;3.97;1.10;;;18.00;99.90;20.50;99340.00;;;;5027045;28;20594;-74
2023/03/13 14:14:16;;;;;;;3.07;0.97;;;17.90;99.90;19.30;99324.00;;;;5043996;28;20202;-74
2023/03/13 14:16:59;;;;;;;5.60;1.53;;;17.70;99.90;19.40;99327.00;;;;5015611;28;20255;-74
2023/03/13 14:19:40;;;;;;;0.40;0.40;;;17.40;99.90;19.30;99356.00;;;;5032824;28;20182;-75
2023/03/13 14:22:10;;;;;;;0.83;0.80;;;17.20;99.90;19.60;99345.00;;;;5032106;28;20189;-75
2023/03/13 14:24:55;;;;;;;3.37;1.80;;;17.30;99.90;18.90;99347.00;;;;5031721;28;20192;-75
2023/03/13 14:27:23;;;;;;;6.13;1.63;;;17.20;99.90;19.40;99337.00;;;;5033148;28;20240;-74
2023/03/13 14:30:12;;;;;;;0.33;0.33;;;17.20;99.90;19.70;99316.00;;;;5032625;28;20626;-74
2023/03/13 14:32:51;;;;;;;0.30;0.30;;;17.30;99.90;19.20;99309.00;;;;5031483;28;20231;-75
2023/03/13 14:35:19;;;;;;;3.67;1.23;;;17.20;99.90;20.20;99293.00;;;;5015182;28;20188;-75
2023/03/13 14:37:53;;;;;;;2.43;0.50;;;17.50;99.90;20.10;99291.00;;;;5015271;28;20246;-75
2023/03/13 14:40:27;;;;;;;1.60;1.50;;;17.40;99.90;19.20;99305.00;;;;5031440;28;20197;-75
2023/03/13 14:42:59;;;;;;;1.43;1.33;;;17.30;99.90;19.00;99290.00;;;;5032091;28;20649;-75
2023/03/13 14:45:38;;;;;;;4.80;0.93;;;17.20;99.90;19.50;99279.00;;;;5058357;28;20250;-74
2023/03/13 14:48:26;;;;;;;0.33;0.33;;;17.40;99.90;20.70;99269.00;;;;5032207;28;20226;-75
2023/03/13 14:51:24;;;;;;;1.63;0.93;;;17.60;99.90;20.30;99271.00;;;;5032629;28;20178;-75
2023/03/13 14:54:01;;;;;;;1.07;0.77;;;17.80;99.90;19.40;99279.00;;;;5047759;28;20216;-75
2023/03/13 14:56:46;;;;;;;0.20;0.20;;;17.50;99.90;20.60;99239.00;;;;5031479;28;20194;-75
2023/03/13 14:59:22;;;;;;;2.23;1.10;;;17.80;99.90;19.60;99255.00;;;;5025492;28;20271;-74
2023/03/13 15:02:20;;;;;;;2.27;0.80;;;17.60;99.90;19.20;99255.00;;;;5032525;28;20274;-74
2023/03/13 15:05:00;;;;;;;1.53;0.67;;;17.40;99.90;20.00;99217.00;;;;5018078;28;20190;-74
2023/03/13 15:07:46;;;;;;;4.17;1.17;;;17.60;99.90;19.70;99203.00;;;;5032390;28;20191;-75
2023/03/13 15:10:39;;;;;;;0.33;0.33;;;17.50;99.90;20.70;99219.00;;;;5032712;28;20584;-73
2023/03/13 15:13:35;;;;;;;0.45;0.45;;;17.70;99.90;21.10;99211.00;;;;5031588;28;20210;-75
2023/03/13 15:16:26;;;;;;;0.43;0.43;;;18.00;99.90;19.70;99229.00;;;;5031471;28;20182;-74
2023/03/13 15:18:55;;;;;;;0.50;0.50;;;17.60;99.90;19.90;99230.00;;;;5023543;28;20192;-75
2023/03/13 15:21:32;;;;;;;0.30;0.30;;;17.50;99.90;19.80;99212.00;;;;5034931;28;20201;-74
2023/03/13 15:24:13;;;;;;;2.73;0.90;;;17.40;99.90;19.60;99208.00;;;;5034650;28;20189;-74
2023/03/13 15:26:50;;;;;;;1.43;0.73;;;17.30;99.90;20.20;99194.00;;;;5035336;28;20193;-75
2023/03/13 15:29:17;;;;;;;1.13;0.70;;;17.50;99.90;19.60;99197.00;;;;5036156;28;20189;-75
2023/03/13 15:31:51;;;;;;;36.17;3.13;;;17.40;99.90;20.30;99191.00;;;;5018211;28;20377;-75
2023/03/13 15:34:24;;;;;;;2.40;1.33;;;17.50;99.90;19.20;99202.00;;;;5035045;28;20178;-74
2023/03/13 15:36:55;;;;;;;1.33;0.63;;;17.40;99.90;19.60;99185.00;;;;5034635;28;20265;-74
2023/03/13 15:39:29;;;;;;;4.53;1.60;;;17.30;99.90;19.70;99175.00;;;;5035859;28;20209;-74
2023/03/13 15:42:06;;;;;;;0.97;0.97;;;17.40;99.90;19.90;99169.00;;;;5031408;28;20194;-74
2023/03/13 15:44:34;;;;;;;0.10;0.10;;;17.30;99.90;20.30;99131.00;;;;5058656;28;20192;-74
2023/03/13 15:47:04;;;;;;;3.60;0.60;;;17.50;99.90;19.10;99179.00;;;;5035828;28;20186;-74
2023/03/13 15:49:33;;;;;;;0.23;0.23;;;17.20;99.90;20.60;99146.00;;;;5035728;28;20193;-75
2023/03/13 15:52:17;;;;;;;0.10;0.10;;;17.30;99.90;21.50;99129.00;;;;5017933;28;20209;-74
2023/03/13 15:54:47;;;;;;;0.20;0.20;;;17.70;99.90;21.60;99127.00;;;;5035737;28;20273;-75
2023/03/13 15:57:17;;;;;;;0.22;0.22;;;17.90;99.90;21.00;99125.00;;;;5034491;28;20243;-75
2023/03/13 15:59:44;;;;;;;0.38;0.30;;;17.90;99.90;20.80;99140.00;;;;5034437;28;20591;-75
2023/03/13 16:02:39;;;;;;;0.50;0.50;;;17.70;99.90;21.40;99114.00;;;;5016568;28;20208;-75
2023/03/13 16:05:14;;;;;;;1.43;0.83;;;17.90;99.90;21.80;99101.00;;;;5027977;28;20661;-75
2023/03/13 16:07:43;;;;;;;0.70;0.70;;;18.00;99.90;20.40;99122.00;;;;5034336;28;20644;-74
2023/03/13 16:10:27;;;;;;;0.10;0.10;;;17.90;99.90;21.00;99105.00;;;;5034180;28;20208;-75
2023/03/13 16:13:05;;;;;;;2.47;0.50;;;17.70;99.90;21.70;99082.00;;;;5022757;28;20541;-74
2023/03/13 16:15:34;;;;;;;1.23;0.67;;;18.00;99.90;20.60;99099.00;;;;5035579;28;20188;-74
2023/03/13 16:18:03;;;;;;;2.97;1.90;;;17.70;99.90;19.90;99123.00;;;;5035068;28;20191;-75
2023/03/13 16:20:33;;;;;;;0.20;0.20;;;17.40;99.90;21.20;99084.00;;;;5035232;28;20195;-74
2023/03/13 16:23:02;;;;;;;1.37;0.63;;;17.70;99.90;19.90;99087.00;;;;5034054;28;20193;-74
2023/03/13 16:25:31;;;;;;;6.57;0.87;;;17.40;99.90;19.50;99117.00;;;;5034091;28;20260;-74
2023/03/13 16:27:58;;;;;;;0.33;0.33;;;17.20;99.90;20.30;99106.00;;;;5034137;28;20227;-74
2023/03/13 16:30:30;;;;;;;0.10;0.10;;;17.30;99.90;20.70;99092.00;;;;5033518;28;20555;-74
2023/03/13 16:32:57;;;;;;;0.23;0.23;;;17.40;99.90;20.20;99111.00;;;;5033717;28;20304;-75
2023/03/13 16:35:26;;;;;;;0.10;0.10;;;17.40;99.90;21.00;99081.00;;;;5017048;28;20185;-74
2023/03/13 16:37:56;;;;;;;0.77;0.57;;;17.50;99.90;20.00;99106.00;;;;5016955;28;20198;-74
2023/03/13 16:40:31;;;;;;;0.20;0.20;;;17.40;99.90;19.80;99066.00;;;;5017564;28;20186;-74
2023/03/13 16:43:00;;;;;;;0.10;0.10;;;17.30;99.90;20.50;99083.00;;;;5028951;28;20193;-75
2023/03/13 16:45:27;;;;;;;0.10;0.10;;;17.20;99.90;20.80;99071.00;;;;5027407;28;20212;-74
2023/03/13 16:47:55;;;;;;;0.40;0.40;;;17.30;99.90;20.40;99073.00;;;;5032305;28;20205;-74
2023/03/13 16:50:24;;;;;;;0.87;0.87;;;17.40;99.90;21.30;99051.00;;;;5034392;28;20217;-74
2023/03/13 16:52:52;;;;;;;0.50;0.50;;;17.60;99.90;21.00;99054.00;;;;5024504;28;20202;-75
2023/03/13 16:55:19;;;;;;;0.10;0.10;;;17.60;99.90;21.50;99037.00;;;;5033690;28;20190;-75
2023/03/13 16:57:45;;;;;;;0.10;0.10;;;17.70;99.90;20.60;99053.00;;;;5033608;28;20186;-74
2023/03/13 17:00:18;;;;;;;0.10;0.10;;;17.60;99.90;21.50;99041.00;;;;5033442;28;20206;-74
2023/03/13 17:02:47;;;;;;;0.10;0.10;;;17.60;99.90;22.40;99009.00;;;;5016498;28;20199;-74
2023/03/13 17:05:14;;;;;;;3.20;3.10;;;17.90;99.90;21.40;99033.00;;;;5034038;28;20181;-75
2023/03/13 17:07:46;;;;;;;0.77;0.40;;;18.00;99.90;20.30;99077.00;;;;5032925;28;20265;-75
2023/03/13 17:10:28;;;;;;;0.10;0.10;;;17.60;99.90;21.90;99041.00;;;;5032918;28;20182;-75
2023/03/13 17:12:57;;;;;;;2.47;0.73;;;17.70;99.90;20.20;99067.00;;;;5032940;28;20310;-75
2023/03/13 17:15:25;;;;;;;0.10;0.10;;;17.50;99.90;20.00;99078.00;;;;5034127;28;20196;-75
2023/03/13 17:17:52;;;;;;;0.10;0.10;;;17.20;99.90;20.60;99070.00;;;;5032623;28;20247;-75
2023/03/13 17:20:26;;;;;;;0.10;0.10;;;17.20;99.90;21.00;99071.00;;;;5024029;28;20208;-75
2023/03/13 17:22:54;;;;;;;1.00;0.47;;;17.20;99.90;20.60;99078.00;;;;5013202;28;20190;-75
2023/03/13 17:25:21;;;;;;;0.10;0.10;;;17.30;99.90;20.40;99089.00;;;;5060628;28;20643;-74
2023/03/13 17:27:53;;;;;;;0.10;0.10;;;17.00;99.90;20.40;99085.00;;;;5032914;28;20239;-75
2023/03/13 17:30:24;;;;;;;0.10;0.10;;;17.00;99.90;20.30;99093.00;;;;5032791;28;20193;-75
2023/03/13 17:32:51;;;;;;;0.10;0.10;;;16.90;99.90;20.50;99075.00;;;;5026064;28;20537;-75
2023/03/13 17:35:18;;;;;;;0.10;0.10;;;17.10;99.90;20.70;99057.00;;;;5032856;28;20218;-75
2023/03/13 17:37:47;;;;;;;0.40;0.40;;;17.00;99.90;20.00;99062.00;;;;5032862;28;20220;-75
2023/03/13 17:40:31;;;;;;;0.40;0.40;;;17.00;99.90;20.00;99089.00;;;;5032761;28;20227;-75
2023/03/13 17:43:02;;;;;;;0.10;0.10;;;16.80;99.90;20.60;99047.00;;;;5032185;28;20353;-75
2023/03/13 17:45:29;;;;;;;0.10;0.10;;;16.80;99.90;20.40;99069.00;;;;5032234;28;20187;-75
2023/03/13 17:47:58;;;;;;;0.10;0.10;;;17.00;99.90;20.60;99086.00;;;;5033417;28;20212;-75
2023/03/13 17:50:26;;;;;;;2.40;1.30;;;17.00;99.90;19.50;99113.00;;;;5022776;28;20185;-75
2023/03/13 17:52:58;;;;;;;0.20;0.20;;;16.70;99.90;19.10;99119.00;;;;5032226;28;20199;-74
2023/03/13 17:55:24;;;;;;;2.40;1.90;;;16.50;99.90;19.70;99101.00;;;;5015805;28;20191;-73
2023/03/13 17:57:52;;;;;;;0.10;0.10;;;16.60;99.90;20.10;99094.00;;;;5015677;28;20721;-74
2023/03/13 18:00:34;;;;;;;1.47;0.80;;;16.70;99.90;19.40;99106.00;;;;5032570;28;20193;-73
2023/03/13 18:03:03;;;;;;;0.27;0.20;;;16.50;99.90;18.70;99082.00;;;;5031804;28;20272;-74
2023/03/13 18:05:29;;;;;;;8.10;1.20;;;16.20;99.90;18.60;99116.00;;;;5033305;28;20219;-74
2023/03/13 18:07:55;;;;;;;0.97;0.97;;;16.10;99.90;19.40;99069.00;;;;5012514;28;20226;-74
2023/03/13 18:10:25;;;;;;;2.23;1.17;;;16.10;99.90;18.90;99067.00;;;;5058437;28;20186;-74
2023/03/13 18:12:52;;;;;;;0.10;0.10;;;16.20;99.90;19.70;99078.00;;;;5011808;28;20213;-74
2023/03/13 18:15:25;;;;;;;1.97;1.23;;;16.20;99.90;19.00;99063.00;;;;5033267;28;20185;-75
2023/03/13 18:17:54;;;;;;;1.23;1.23;;;16.00;99.90;19.70;99035.00;;;;5032824;28;20217;-73
2023/03/13 18:20:30;;;;;;;0.40;0.40;;;16.00;99.90;19.50;99056.00;;;;5033415;28;20193;-74
2023/03/13 18:22:59;;;;;;;5.83;1.67;;;15.90;99.90;18.80;99047.00;;;;5033207;28;20687;-75
2023/03/13 18:25:27;;;;;;;0.20;0.20;;;15.70;99.90;18.30;99008.00;;;;5033136;28;20595;-73
2023/03/13 18:27:56;;;;;;;0.20;0.20;;;15.50;99.90;18.10;98984.00;;;;5032057;28;20191;-74
2023/03/13 18:30:28;;;;;;;10.53;0.83;;;15.40;99.90;18.20;98985.00;;;;5011845;28;20200;-74
2023/03/13 18:32:54;;;;;;;0.50;0.50;;;15.30;99.90;18.10;98959.00;;;;5027292;28;20232;-75
2023/03/13 18:35:20;;;;;;;3.77;0.77;;;15.40;99.90;17.70;98982.00;;;;5031526;28;20184;-75
2023/03/13 18:37:47;;;;;;;3.20;1.37;;;15.20;99.90;18.40;98972.00;;;;5032254;28;20247;-74
2023/03/13 18:40:39;;;;;;;5.73;0.97;;;15.30;99.90;16.90;98976.00;;;;5031545;28;20275;-75
2023/03/13 18:43:05;;;;;;;0.40;0.30;;;14.90;99.90;16.90;98923.00;;;;5029778;28;20566;-75
2023/03/13 18:45:40;;;;;;;0.23;0.23;;;14.70;99.90;17.50;98953.00;;;;5019570;28;20180;-74
2023/03/13 18:48:09;;;;;;;1.33;1.03;;;14.80;99.90;17.50;98958.00;;;;5047608;28;20199;-74
2023/03/13 18:50:35;;;;;;;6.03;1.90;;;14.80;99.90;17.00;98955.00;;;;5032877;28;20185;-74
2023/03/13 18:53:02;;;;;;;2.47;1.33;;;14.70;99.90;17.70;98948.00;;;;5015679;28;20567;-74
2023/03/13 18:55:30;;;;;;;0.20;0.20;;;14.80;99.90;16.90;98935.00;;;;5035233;28;20243;-73
2023/03/13 18:57:56;;;;;;;0.33;0.33;;;14.70;99.90;16.90;98934.00;;;;5036676;28;20644;-74
2023/03/13 19:00:29;;;;;;;0.20;0.20;;;14.50;99.90;17.80;98900.00;;;;5035408;28;20189;-74
2023/03/13 19:02:56;;;;;;;0.20;0.20;;;14.80;99.90;17.90;98929.00;;;;5015941;28;20201;-74
2023/03/13 19:05:22;;;;;;;0.20;0.20;;;14.70;99.90;18.60;98935.00;;;;5067145;28;20182;-74
2023/03/13 19:07:48;;;;;;;0.30;0.30;;;15.00;99.90;19.00;98944.00;;;;5035502;28;20202;-75
2023/03/13 19:10:25;;;;;;;0.20;0.20;;;15.10;99.90;18.40;98915.00;;;;5023725;28;20255;-74
2023/03/13 19:12:53;;;;;;;1.30;0.87;;;15.00;99.90;16.70;98916.00;;;;5067697;28;20282;-74
2023/03/13 19:15:24;;;;;;;0.60;0.60;;;14.50;99.90;17.50;98901.00;;;;5019060;28;20227;-74
2023/03/13 19:17:51;;;;;;;4.27;1.03;;;14.40;99.90;16.30;98869.00;;;;5030074;28;20186;-74
2023/03/13 19:20:20;;;;;;;0.30;0.30;;;14.20;99.90;16.50;98908.00;;;;5018972;28;20646;-74
2023/03/13 19:22:47;;;;;;;0.30;0.30;;;14.10;99.90;16.70;98903.00;;;;5036518;28;20192;-74
2023/03/13 19:25:19;;;;;;;1.27;1.20;;;14.00;99.90;16.70;98903.00;;;;5036587;28;20216;-74